sensor_id;sensor_type;location;lat;lon;timestamp;P1;durP1;ratioP1;P2;durP2;ratioP2
2546;SDS011;1283;47.982;7.834;2024-01-27T00:01:47;6.20;;;2.55;;
2546;SDS011;1283;47.982;7.834;2024-01-27T00:04:14;8.80;;;3.38;;
2546;SDS011;1283;47.982;7.834;2024-01-27T00:06:42;11.65;;;3.60;;
2546;SDS011;1283;47.982;7.834;2024-01-27T00:09:08;11.82;;;3.13;;
2546;SDS011;1283;47.982;7.834;2024-01-27T00:11:34;8.45;;;3.88;;
2546;SDS011;1283;47.982;7.834;2024-01-27T00:14:01;9.45;;;2.90;;
2546;SDS011;1283;47.982;7.834;2024-01-27T00:16:28;7.68;;;2.92;;
2546;SDS011;1283;47.982;7.834;2024-01-27T00:18:54;10.98;;;2.60;;
2546;SDS011;1283;47.982;7.834;2024-01-27T00:21:20;5.97;;;3.13;;
2546;SDS011;1283;47.982;7.834;2024-01-27T00:23:48;8.68;;;3.13;;
2546;SDS011;1283;47.982;7.834;2024-01-27T00:26:15;12.13;;;2.90;;
2546;SDS011;1283;47.982;7.834;2024-01-27T00:28:41;8.35;;;2.75;;
2546;SDS011;1283;47.982;7.834;2024-01-27T00:31:07;4.82;;;2.53;;
2546;SDS011;1283;47.982;7.834;2024-01-27T00:33:34;10.32;;;3.47;;
2546;SDS011;1283;47.982;7.834;2024-01-27T00:36:01;9.00;;;4.35;;
2546;SDS011;1283;47.982;7.834;2024-01-27T00:38:28;8.82;;;4.15;;
2546;SDS011;1283;47.982;7.834;2024-01-27T00:40:55;9.20;;;3.95;;
2546;SDS011;1283;47.982;7.834;2024-01-27T00:43:22;8.85;;;3.90;;
2546;SDS011;1283;47.982;7.834;2024-01-27T00:45:48;9.70;;;4.20;;
2546;SDS011;1283;47.982;7.834;2024-01-27T00:48:15;8.60;;;4.07;;
2546;SDS011;1283;47.982;7.834;2024-01-27T00:50:41;12.20;;;4.18;;
2546;SDS011;1283;47.982;7.834;2024-01-27T00:53:08;8.13;;;4.18;;
2546;SDS011;1283;47.982;7.834;2024-01-27T00:55:34;7.10;;;3.70;;
2546;SDS011;1283;47.982;7.834;2024-01-27T00:58:02;11.10;;;4.05;;
2546;SDS011;1283;47.982;7.834;2024-01-27T01:00:29;7.90;;;4.13;;
2546;SDS011;1283;47.982;7.834;2024-01-27T01:02:55;7.90;;;4.10;;
2546;SDS011;1283;47.982;7.834;2024-01-27T01:05:21;8.63;;;3.83;;
2546;SDS011;1283;47.982;7.834;2024-01-27T01:07:48;8.63;;;3.72;;
2546;SDS011;1283;47.982;7.834;2024-01-27T01:10:13;8.32;;;3.28;;
2546;SDS011;1283;47.982;7.834;2024-01-27T01:12:40;6.07;;;3.33;;
2546;SDS011;1283;47.982;7.834;2024-01-27T01:15:08;8.57;;;3.28;;
2546;SDS011;1283;47.982;7.834;2024-01-27T01:17:35;5.55;;;2.90;;
2546;SDS011;1283;47.982;7.834;2024-01-27T01:20:01;10.80;;;3.30;;
2546;SDS011;1283;47.982;7.834;2024-01-27T01:22:28;4.45;;;2.50;;
2546;SDS011;1283;47.982;7.834;2024-01-27T01:24:54;6.97;;;2.35;;
2546;SDS011;1283;47.982;7.834;2024-01-27T01:27:20;10.32;;;3.13;;
2546;SDS011;1283;47.982;7.834;2024-01-27T01:29:47;4.97;;;2.35;;
2546;SDS011;1283;47.982;7.834;2024-01-27T01:32:15;6.32;;;2.30;;
2546;SDS011;1283;47.982;7.834;2024-01-27T01:34:41;10.43;;;2.42;;
2546;SDS011;1283;47.982;7.834;2024-01-27T01:37:07;7.53;;;1.80;;
2546;SDS011;1283;47.982;7.834;2024-01-27T01:39:34;10.65;;;2.33;;
2546;SDS011;1283;47.982;7.834;2024-01-27T01:42:00;4.43;;;1.75;;
2546;SDS011;1283;47.982;7.834;2024-01-27T01:44:26;9.23;;;2.33;;
2546;SDS011;1283;47.982;7.834;2024-01-27T01:46:55;8.13;;;2.03;;
2546;SDS011;1283;47.982;7.834;2024-01-27T01:49:23;6.43;;;1.90;;
2546;SDS011;1283;47.982;7.834;2024-01-27T01:51:50;4.70;;;1.58;;
2546;SDS011;1283;47.982;7.834;2024-01-27T01:54:16;14.10;;;2.67;;
2546;SDS011;1283;47.982;7.834;2024-01-27T01:56:43;8.18;;;1.50;;
2546;SDS011;1283;47.982;7.834;2024-01-27T01:59:10;4.47;;;1.40;;
2546;SDS011;1283;47.982;7.834;2024-01-27T02:01:36;6.80;;;1.40;;
2546;SDS011;1283;47.982;7.834;2024-01-27T02:04:04;7.65;;;1.65;;
2546;SDS011;1283;47.982;7.834;2024-01-27T02:06:32;6.15;;;2.17;;
2546;SDS011;1283;47.982;7.834;2024-01-27T02:08:59;5.35;;;1.88;;
2546;SDS011;1283;47.982;7.834;2024-01-27T02:11:25;6.43;;;2.13;;
2546;SDS011;1283;47.982;7.834;2024-01-27T02:13:52;4.93;;;1.50;;
2546;SDS011;1283;47.982;7.834;2024-01-27T02:16:18;7.57;;;2.13;;
2546;SDS011;1283;47.982;7.834;2024-01-27T02:18:46;4.85;;;1.70;;
2546;SDS011;1283;47.982;7.834;2024-01-27T02:21:13;8.35;;;1.58;;
2546;SDS011;1283;47.982;7.834;2024-01-27T02:23:41;7.20;;;3.05;;
2546;SDS011;1283;47.982;7.834;2024-01-27T02:26:08;7.72;;;1.58;;
2546;SDS011;1283;47.982;7.834;2024-01-27T02:28:35;7.47;;;2.00;;
2546;SDS011;1283;47.982;7.834;2024-01-27T02:31:01;6.32;;;1.63;;
2546;SDS011;1283;47.982;7.834;2024-01-27T02:33:28;8.60;;;1.98;;
2546;SDS011;1283;47.982;7.834;2024-01-27T02:35:54;5.15;;;1.50;;
2546;SDS011;1283;47.982;7.834;2024-01-27T02:38:21;5.57;;;1.77;;
2546;SDS011;1283;47.982;7.834;2024-01-27T02:40:47;6.10;;;1.83;;
2546;SDS011;1283;47.982;7.834;2024-01-27T02:43:15;7.45;;;1.80;;
2546;SDS011;1283;47.982;7.834;2024-01-27T02:45:41;7.93;;;2.65;;
2546;SDS011;1283;47.982;7.834;2024-01-27T02:48:08;5.50;;;1.73;;
2546;SDS011;1283;47.982;7.834;2024-01-27T02:50:34;11.25;;;1.83;;
2546;SDS011;1283;47.982;7.834;2024-01-27T02:53:01;7.25;;;1.70;;
2546;SDS011;1283;47.982;7.834;2024-01-27T02:55:27;8.15;;;1.60;;
2546;SDS011;1283;47.982;7.834;2024-01-27T02:57:53;5.30;;;1.65;;
2546;SDS011;1283;47.982;7.834;2024-01-27T03:00:21;7.63;;;1.83;;
2546;SDS011;1283;47.982;7.834;2024-01-27T03:02:48;8.40;;;2.53;;
2546;SDS011;1283;47.982;7.834;2024-01-27T03:05:15;4.72;;;1.67;;
2546;SDS011;1283;47.982;7.834;2024-01-27T03:07:41;7.00;;;1.52;;
2546;SDS011;1283;47.982;7.834;2024-01-27T03:10:08;7.95;;;1.85;;
2546;SDS011;1283;47.982;7.834;2024-01-27T03:12:34;6.43;;;1.42;;
2546;SDS011;1283;47.982;7.834;2024-01-27T03:15:00;4.75;;;1.33;;
2546;SDS011;1283;47.982;7.834;2024-01-27T03:17:28;5.15;;;2.03;;
2546;SDS011;1283;47.982;7.834;2024-01-27T03:19:55;3.72;;;1.77;;
2546;SDS011;1283;47.982;7.834;2024-01-27T03:22:21;5.22;;;2.00;;
2546;SDS011;1283;47.982;7.834;2024-01-27T03:24:47;5.07;;;1.50;;
2546;SDS011;1283;47.982;7.834;2024-01-27T03:27:15;7.57;;;2.05;;
2546;SDS011;1283;47.982;7.834;2024-01-27T03:29:42;11.00;;;1.95;;
2546;SDS011;1283;47.982;7.834;2024-01-27T03:32:08;6.25;;;1.73;;
2546;SDS011;1283;47.982;7.834;2024-01-27T03:34:37;7.32;;;1.52;;
2546;SDS011;1283;47.982;7.834;2024-01-27T03:37:07;8.52;;;1.73;;
2546;SDS011;1283;47.982;7.834;2024-01-27T03:39:33;9.23;;;1.88;;
2546;SDS011;1283;47.982;7.834;2024-01-27T03:42:00;6.30;;;1.77;;
2546;SDS011;1283;47.982;7.834;2024-01-27T03:44:26;6.15;;;2.10;;
2546;SDS011;1283;47.982;7.834;2024-01-27T03:46:53;6.47;;;2.00;;
2546;SDS011;1283;47.982;7.834;2024-01-27T03:49:19;6.18;;;1.90;;
2546;SDS011;1283;47.982;7.834;2024-01-27T03:51:47;8.70;;;1.63;;
2546;SDS011;1283;47.982;7.834;2024-01-27T03:54:13;6.45;;;1.60;;
2546;SDS011;1283;47.982;7.834;2024-01-27T03:56:40;4.28;;;1.90;;
2546;SDS011;1283;47.982;7.834;2024-01-27T03:59:07;6.55;;;1.98;;
2546;SDS011;1283;47.982;7.834;2024-01-27T04:01:34;7.75;;;1.92;;
2546;SDS011;1283;47.982;7.834;2024-01-27T04:04:01;7.00;;;2.33;;
2546;SDS011;1283;47.982;7.834;2024-01-27T04:06:35;5.18;;;2.05;;
2546;SDS011;1283;47.982;7.834;2024-01-27T04:09:04;4.93;;;1.70;;
2546;SDS011;1283;47.982;7.834;2024-01-27T04:11:33;3.95;;;1.48;;
2546;SDS011;1283;47.982;7.834;2024-01-27T04:14:01;3.55;;;1.77;;
2546;SDS011;1283;47.982;7.834;2024-01-27T04:16:31;5.13;;;2.17;;
2546;SDS011;1283;47.982;7.834;2024-01-27T04:19:00;3.80;;;1.77;;
2546;SDS011;1283;47.982;7.834;2024-01-27T04:21:28;4.55;;;1.98;;
2546;SDS011;1283;47.982;7.834;2024-01-27T04:23:57;6.82;;;1.85;;
2546;SDS011;1283;47.982;7.834;2024-01-27T04:26:24;4.85;;;1.48;;
2546;SDS011;1283;47.982;7.834;2024-01-27T04:28:52;3.63;;;1.63;;
2546;SDS011;1283;47.982;7.834;2024-01-27T04:31:23;2.80;;;1.67;;
2546;SDS011;1283;47.982;7.834;2024-01-27T04:33:50;4.88;;;2.10;;
2546;SDS011;1283;47.982;7.834;2024-01-27T04:36:24;8.93;;;1.85;;
2546;SDS011;1283;47.982;7.834;2024-01-27T04:38:54;12.43;;;2.20;;
2546;SDS011;1283;47.982;7.834;2024-01-27T04:41:21;4.43;;;1.85;;
2546;SDS011;1283;47.982;7.834;2024-01-27T04:43:49;6.10;;;2.22;;
2546;SDS011;1283;47.982;7.834;2024-01-27T04:46:18;3.10;;;1.70;;
2546;SDS011;1283;47.982;7.834;2024-01-27T04:48:45;8.95;;;2.00;;
2546;SDS011;1283;47.982;7.834;2024-01-27T04:51:11;5.15;;;1.88;;
2546;SDS011;1283;47.982;7.834;2024-01-27T04:53:38;5.60;;;2.00;;
2546;SDS011;1283;47.982;7.834;2024-01-27T04:56:07;8.73;;;1.95;;
2546;SDS011;1283;47.982;7.834;2024-01-27T04:58:37;3.90;;;1.33;;
2546;SDS011;1283;47.982;7.834;2024-01-27T05:01:05;3.78;;;1.67;;
2546;SDS011;1283;47.982;7.834;2024-01-27T05:03:32;8.38;;;1.90;;
2546;SDS011;1283;47.982;7.834;2024-01-27T05:05:58;4.78;;;1.80;;
2546;SDS011;1283;47.982;7.834;2024-01-27T05:08:25;2.63;;;1.58;;
2546;SDS011;1283;47.982;7.834;2024-01-27T05:10:54;7.18;;;1.58;;
2546;SDS011;1283;47.982;7.834;2024-01-27T05:13:21;10.13;;;2.33;;
2546;SDS011;1283;47.982;7.834;2024-01-27T05:15:48;5.32;;;1.65;;
2546;SDS011;1283;47.982;7.834;2024-01-27T05:18:16;5.65;;;2.00;;
2546;SDS011;1283;47.982;7.834;2024-01-27T05:20:42;5.85;;;1.92;;
2546;SDS011;1283;47.982;7.834;2024-01-27T05:23:10;7.78;;;1.77;;
2546;SDS011;1283;47.982;7.834;2024-01-27T05:25:36;10.10;;;2.00;;
2546;SDS011;1283;47.982;7.834;2024-01-27T05:28:03;6.88;;;1.75;;
2546;SDS011;1283;47.982;7.834;2024-01-27T05:30:32;4.28;;;1.50;;
2546;SDS011;1283;47.982;7.834;2024-01-27T05:32:59;6.13;;;1.73;;
2546;SDS011;1283;47.982;7.834;2024-01-27T05:35:27;12.45;;;2.60;;
2546;SDS011;1283;47.982;7.834;2024-01-27T05:37:53;13.07;;;2.40;;
2546;SDS011;1283;47.982;7.834;2024-01-27T05:40:22;3.42;;;1.60;;
2546;SDS011;1283;47.982;7.834;2024-01-27T05:42:48;7.28;;;1.90;;
2546;SDS011;1283;47.982;7.834;2024-01-27T05:45:15;6.45;;;1.92;;
2546;SDS011;1283;47.982;7.834;2024-01-27T05:47:43;7.88;;;2.00;;
2546;SDS011;1283;47.982;7.834;2024-01-27T05:50:10;5.13;;;1.83;;
2546;SDS011;1283;47.982;7.834;2024-01-27T05:52:39;13.50;;;2.08;;
2546;SDS011;1283;47.982;7.834;2024-01-27T05:55:07;13.07;;;2.30;;
2546;SDS011;1283;47.982;7.834;2024-01-27T05:57:35;5.97;;;2.25;;
2546;SDS011;1283;47.982;7.834;2024-01-27T06:00:01;8.82;;;2.70;;
2546;SDS011;1283;47.982;7.834;2024-01-27T06:02:31;5.97;;;2.20;;
2546;SDS011;1283;47.982;7.834;2024-01-27T06:05:04;3.70;;;1.98;;
2546;SDS011;1283;47.982;7.834;2024-01-27T06:07:33;8.75;;;2.45;;
2546;SDS011;1283;47.982;7.834;2024-01-27T06:10:04;8.07;;;2.78;;
2546;SDS011;1283;47.982;7.834;2024-01-27T06:12:34;3.60;;;1.90;;
2546;SDS011;1283;47.982;7.834;2024-01-27T06:15:01;4.25;;;1.95;;
2546;SDS011;1283;47.982;7.834;2024-01-27T06:17:31;6.97;;;2.38;;
2546;SDS011;1283;47.982;7.834;2024-01-27T06:19:57;5.95;;;3.10;;
2546;SDS011;1283;47.982;7.834;2024-01-27T06:22:24;6.68;;;2.35;;
2546;SDS011;1283;47.982;7.834;2024-01-27T06:24:50;4.20;;;2.20;;
2546;SDS011;1283;47.982;7.834;2024-01-27T06:27:19;9.90;;;2.75;;
2546;SDS011;1283;47.982;7.834;2024-01-27T06:29:47;4.13;;;2.22;;
2546;SDS011;1283;47.982;7.834;2024-01-27T06:32:14;6.72;;;2.83;;
2546;SDS011;1283;47.982;7.834;2024-01-27T06:34:41;4.45;;;2.00;;
2546;SDS011;1283;47.982;7.834;2024-01-27T06:37:11;4.45;;;2.30;;
2546;SDS011;1283;47.982;7.834;2024-01-27T06:39:37;3.45;;;2.08;;
2546;SDS011;1283;47.982;7.834;2024-01-27T06:42:04;8.38;;;2.22;;
2546;SDS011;1283;47.982;7.834;2024-01-27T06:44:37;6.13;;;2.05;;
2546;SDS011;1283;47.982;7.834;2024-01-27T06:47:04;8.35;;;2.28;;
2546;SDS011;1283;47.982;7.834;2024-01-27T06:49:31;7.53;;;4.45;;
2546;SDS011;1283;47.982;7.834;2024-01-27T06:51:58;9.32;;;3.55;;
2546;SDS011;1283;47.982;7.834;2024-01-27T06:54:26;8.63;;;3.15;;
2546;SDS011;1283;47.982;7.834;2024-01-27T06:57:17;7.95;;;4.03;;
2546;SDS011;1283;47.982;7.834;2024-01-27T07:02:36;11.07;;;3.65;;
2546;SDS011;1283;47.982;7.834;2024-01-27T07:05:07;7.43;;;4.15;;
2546;SDS011;1283;47.982;7.834;2024-01-27T07:08:01;11.77;;;3.92;;
2546;SDS011;1283;47.982;7.834;2024-01-27T07:10:27;9.90;;;3.83;;
2546;SDS011;1283;47.982;7.834;2024-01-27T07:12:54;11.05;;;4.30;;
2546;SDS011;1283;47.982;7.834;2024-01-27T07:15:20;10.38;;;3.50;;
2546;SDS011;1283;47.982;7.834;2024-01-27T07:17:48;9.65;;;2.92;;
2546;SDS011;1283;47.982;7.834;2024-01-27T07:20:14;4.55;;;2.00;;
2546;SDS011;1283;47.982;7.834;2024-01-27T07:22:41;7.30;;;2.58;;
2546;SDS011;1283;47.982;7.834;2024-01-27T07:25:09;7.45;;;2.67;;
2546;SDS011;1283;47.982;7.834;2024-01-27T07:27:36;6.88;;;2.67;;
2546;SDS011;1283;47.982;7.834;2024-01-27T07:30:02;13.90;;;2.67;;
2546;SDS011;1283;47.982;7.834;2024-01-27T07:32:30;10.02;;;2.65;;
2546;SDS011;1283;47.982;7.834;2024-01-27T07:34:56;7.68;;;2.80;;
2546;SDS011;1283;47.982;7.834;2024-01-27T07:37:23;10.02;;;2.95;;
2546;SDS011;1283;47.982;7.834;2024-01-27T07:39:49;5.30;;;2.67;;
2546;SDS011;1283;47.982;7.834;2024-01-27T07:42:17;7.07;;;2.63;;
2546;SDS011;1283;47.982;7.834;2024-01-27T07:44:43;5.88;;;2.35;;
2546;SDS011;1283;47.982;7.834;2024-01-27T07:47:10;6.80;;;2.70;;
2546;SDS011;1283;47.982;7.834;2024-01-27T07:49:36;5.63;;;2.83;;
2546;SDS011;1283;47.982;7.834;2024-01-27T07:52:03;8.02;;;2.63;;
2546;SDS011;1283;47.982;7.834;2024-01-27T07:54:29;11.05;;;2.78;;
2546;SDS011;1283;47.982;7.834;2024-01-27T07:56:58;9.10;;;2.67;;
2546;SDS011;1283;47.982;7.834;2024-01-27T07:59:26;5.90;;;2.83;;
2546;SDS011;1283;47.982;7.834;2024-01-27T08:01:52;12.52;;;2.95;;
2546;SDS011;1283;47.982;7.834;2024-01-27T08:04:18;6.97;;;2.47;;
2546;SDS011;1283;47.982;7.834;2024-01-27T08:06:46;11.65;;;2.95;;
2546;SDS011;1283;47.982;7.834;2024-01-27T08:09:12;10.95;;;3.47;;
2546;SDS011;1283;47.982;7.834;2024-01-27T08:11:39;8.43;;;3.30;;
2546;SDS011;1283;47.982;7.834;2024-01-27T08:14:05;12.18;;;3.55;;
2546;SDS011;1283;47.982;7.834;2024-01-27T08:16:33;9.63;;;3.53;;
2546;SDS011;1283;47.982;7.834;2024-01-27T08:18:59;7.85;;;3.17;;
2546;SDS011;1283;47.982;7.834;2024-01-27T08:21:26;10.60;;;3.05;;
2546;SDS011;1283;47.982;7.834;2024-01-27T08:23:52;9.65;;;3.00;;
2546;SDS011;1283;47.982;7.834;2024-01-27T08:26:18;10.93;;;3.42;;
2546;SDS011;1283;47.982;7.834;2024-01-27T08:28:45;10.55;;;2.78;;
2546;SDS011;1283;47.982;7.834;2024-01-27T08:31:12;6.82;;;3.50;;
2546;SDS011;1283;47.982;7.834;2024-01-27T08:33:40;11.68;;;3.13;;
2546;SDS011;1283;47.982;7.834;2024-01-27T08:36:07;8.02;;;3.28;;
2546;SDS011;1283;47.982;7.834;2024-01-27T08:38:33;9.20;;;3.13;;
2546;SDS011;1283;47.982;7.834;2024-01-27T08:41:00;6.55;;;2.58;;
2546;SDS011;1283;47.982;7.834;2024-01-27T08:43:26;5.47;;;2.72;;
2546;SDS011;1283;47.982;7.834;2024-01-27T08:45:52;7.50;;;3.17;;
2546;SDS011;1283;47.982;7.834;2024-01-27T08:48:19;11.57;;;3.60;;
2546;SDS011;1283;47.982;7.834;2024-01-27T08:50:47;6.32;;;3.50;;
2546;SDS011;1283;47.982;7.834;2024-01-27T08:53:14;13.73;;;4.25;;
2546;SDS011;1283;47.982;7.834;2024-01-27T08:55:40;7.93;;;3.40;;
2546;SDS011;1283;47.982;7.834;2024-01-27T08:58:07;6.88;;;3.15;;
2546;SDS011;1283;47.982;7.834;2024-01-27T09:00:33;7.93;;;3.72;;
2546;SDS011;1283;47.982;7.834;2024-01-27T09:02:59;10.32;;;4.13;;
2546;SDS011;1283;47.982;7.834;2024-01-27T09:05:26;5.43;;;3.50;;
2546;SDS011;1283;47.982;7.834;2024-01-27T09:07:55;11.45;;;4.00;;
2546;SDS011;1283;47.982;7.834;2024-01-27T09:10:21;8.82;;;3.90;;
2546;SDS011;1283;47.982;7.834;2024-01-27T09:12:47;6.80;;;3.42;;
2546;SDS011;1283;47.982;7.834;2024-01-27T09:15:14;9.10;;;3.67;;
2546;SDS011;1283;47.982;7.834;2024-01-27T09:17:40;8.68;;;3.95;;
2546;SDS011;1283;47.982;7.834;2024-01-27T09:20:08;12.07;;;4.65;;
2546;SDS011;1283;47.982;7.834;2024-01-27T09:22:35;11.65;;;4.90;;
2546;SDS011;1283;47.982;7.834;2024-01-27T09:25:03;14.18;;;6.07;;
2546;SDS011;1283;47.982;7.834;2024-01-27T09:27:30;9.43;;;3.75;;
2546;SDS011;1283;47.982;7.834;2024-01-27T09:29:56;12.65;;;3.78;;
2546;SDS011;1283;47.982;7.834;2024-01-27T09:32:23;10.52;;;4.10;;
2546;SDS011;1283;47.982;7.834;2024-01-27T09:34:49;9.13;;;3.80;;
2546;SDS011;1283;47.982;7.834;2024-01-27T09:37:18;9.80;;;3.88;;
2546;SDS011;1283;47.982;7.834;2024-01-27T09:39:45;10.07;;;4.63;;
2546;SDS011;1283;47.982;7.834;2024-01-27T09:42:13;9.65;;;3.65;;
2546;SDS011;1283;47.982;7.834;2024-01-27T09:44:41;9.15;;;3.42;;
2546;SDS011;1283;47.982;7.834;2024-01-27T09:47:08;6.82;;;3.40;;
2546;SDS011;1283;47.982;7.834;2024-01-27T09:49:35;12.70;;;3.45;;
2546;SDS011;1283;47.982;7.834;2024-01-27T09:52:05;13.30;;;3.72;;
2546;SDS011;1283;47.982;7.834;2024-01-27T09:54:31;8.02;;;3.65;;
2546;SDS011;1283;47.982;7.834;2024-01-27T09:56:58;5.80;;;3.30;;
2546;SDS011;1283;47.982;7.834;2024-01-27T09:59:26;9.95;;;3.85;;
2546;SDS011;1283;47.982;7.834;2024-01-27T10:01:52;9.68;;;4.35;;
2546;SDS011;1283;47.982;7.834;2024-01-27T10:04:19;8.18;;;4.13;;
2546;SDS011;1283;47.982;7.834;2024-01-27T10:06:46;10.57;;;3.92;;
2546;SDS011;1283;47.982;7.834;2024-01-27T10:09:13;5.45;;;2.90;;
2546;SDS011;1283;47.982;7.834;2024-01-27T10:11:40;7.45;;;3.30;;
2546;SDS011;1283;47.982;7.834;2024-01-27T10:14:09;8.95;;;3.20;;
2546;SDS011;1283;47.982;7.834;2024-01-27T10:16:41;7.65;;;2.90;;
2546;SDS011;1283;47.982;7.834;2024-01-27T10:19:08;9.15;;;3.05;;
2546;SDS011;1283;47.982;7.834;2024-01-27T10:21:38;7.95;;;3.00;;
2546;SDS011;1283;47.982;7.834;2024-01-27T10:24:05;6.43;;;2.38;;
2546;SDS011;1283;47.982;7.834;2024-01-27T10:26:33;5.68;;;2.28;;
2546;SDS011;1283;47.982;7.834;2024-01-27T10:29:00;5.15;;;2.15;;
2546;SDS011;1283;47.982;7.834;2024-01-27T10:31:27;9.80;;;2.50;;
2546;SDS011;1283;47.982;7.834;2024-01-27T10:33:55;3.53;;;2.35;;
2546;SDS011;1283;47.982;7.834;2024-01-27T10:36:22;8.30;;;2.83;;
2546;SDS011;1283;47.982;7.834;2024-01-27T10:38:48;9.23;;;2.60;;
2546;SDS011;1283;47.982;7.834;2024-01-27T10:41:17;4.93;;;2.20;;
2546;SDS011;1283;47.982;7.834;2024-01-27T10:43:47;8.63;;;2.42;;
2546;SDS011;1283;47.982;7.834;2024-01-27T10:46:16;6.63;;;2.00;;
2546;SDS011;1283;47.982;7.834;2024-01-27T10:48:45;7.20;;;2.17;;
2546;SDS011;1283;47.982;7.834;2024-01-27T10:51:15;5.43;;;2.13;;
2546;SDS011;1283;47.982;7.834;2024-01-27T10:53:45;4.15;;;1.77;;
2546;SDS011;1283;47.982;7.834;2024-01-27T10:56:15;11.65;;;2.40;;
2546;SDS011;1283;47.982;7.834;2024-01-27T10:58:42;5.47;;;1.80;;
2546;SDS011;1283;47.982;7.834;2024-01-27T11:01:11;3.90;;;1.77;;
2546;SDS011;1283;47.982;7.834;2024-01-27T11:03:39;7.22;;;1.77;;
2546;SDS011;1283;47.982;7.834;2024-01-27T11:06:06;10.25;;;3.05;;
2546;SDS011;1283;47.982;7.834;2024-01-27T11:08:34;7.43;;;2.40;;
2546;SDS011;1283;47.982;7.834;2024-01-27T11:11:02;6.38;;;2.05;;
2546;SDS011;1283;47.982;7.834;2024-01-27T11:13:29;7.78;;;2.38;;
2546;SDS011;1283;47.982;7.834;2024-01-27T11:15:56;4.43;;;1.85;;
2546;SDS011;1283;47.982;7.834;2024-01-27T11:18:25;5.80;;;1.58;;
2546;SDS011;1283;47.982;7.834;2024-01-27T11:20:52;8.75;;;1.77;;
2546;SDS011;1283;47.982;7.834;2024-01-27T11:23:19;6.55;;;1.92;;
2546;SDS011;1283;47.982;7.834;2024-01-27T11:25:46;6.15;;;2.75;;
2546;SDS011;1283;47.982;7.834;2024-01-27T11:28:14;5.82;;;2.60;;
2546;SDS011;1283;47.982;7.834;2024-01-27T11:30:44;4.13;;;2.40;;
2546;SDS011;1283;47.982;7.834;2024-01-27T11:33:11;6.60;;;2.42;;
2546;SDS011;1283;47.982;7.834;2024-01-27T11:35:37;6.95;;;2.40;;
2546;SDS011;1283;47.982;7.834;2024-01-27T11:38:04;10.50;;;2.28;;
2546;SDS011;1283;47.982;7.834;2024-01-27T11:40:30;7.05;;;2.55;;
2546;SDS011;1283;47.982;7.834;2024-01-27T11:42:59;11.48;;;3.17;;
2546;SDS011;1283;47.982;7.834;2024-01-27T11:45:26;8.07;;;2.50;;
2546;SDS011;1283;47.982;7.834;2024-01-27T11:47:54;9.50;;;2.50;;
2546;SDS011;1283;47.982;7.834;2024-01-27T11:50:21;7.47;;;2.58;;
2546;SDS011;1283;47.982;7.834;2024-01-27T11:52:48;9.07;;;3.05;;
2546;SDS011;1283;47.982;7.834;2024-01-27T11:55:14;4.50;;;1.90;;
2546;SDS011;1283;47.982;7.834;2024-01-27T11:57:43;8.75;;;2.13;;
2546;SDS011;1283;47.982;7.834;2024-01-27T12:00:12;6.25;;;1.90;;
2546;SDS011;1283;47.982;7.834;2024-01-27T12:02:39;6.10;;;2.25;;
2546;SDS011;1283;47.982;7.834;2024-01-27T12:05:06;8.00;;;2.60;;
2546;SDS011;1283;47.982;7.834;2024-01-27T12:07:32;5.32;;;2.13;;
2546;SDS011;1283;47.982;7.834;2024-01-27T12:09:59;13.80;;;2.15;;
2546;SDS011;1283;47.982;7.834;2024-01-27T12:12:25;7.20;;;2.95;;
2546;SDS011;1283;47.982;7.834;2024-01-27T12:14:52;4.93;;;2.20;;
2546;SDS011;1283;47.982;7.834;2024-01-27T12:17:20;8.55;;;2.67;;
2546;SDS011;1283;47.982;7.834;2024-01-27T12:19:48;5.88;;;2.45;;
2546;SDS011;1283;47.982;7.834;2024-01-27T12:22:20;7.68;;;2.53;;
2546;SDS011;1283;47.982;7.834;2024-01-27T12:24:48;5.13;;;2.50;;
2546;SDS011;1283;47.982;7.834;2024-01-27T12:27:15;6.85;;;2.20;;
2546;SDS011;1283;47.982;7.834;2024-01-27T12:29:42;4.93;;;2.30;;
2546;SDS011;1283;47.982;7.834;2024-01-27T12:32:08;7.32;;;2.88;;
2546;SDS011;1283;47.982;7.834;2024-01-27T12:34:40;7.05;;;2.40;;
2546;SDS011;1283;47.982;7.834;2024-01-27T12:37:07;7.97;;;1.92;;
2546;SDS011;1283;47.982;7.834;2024-01-27T12:39:34;6.20;;;2.38;;
2546;SDS011;1283;47.982;7.834;2024-01-27T12:42:00;7.25;;;2.03;;
2546;SDS011;1283;47.982;7.834;2024-01-27T12:44:26;11.73;;;2.47;;
2546;SDS011;1283;47.982;7.834;2024-01-27T12:46:52;9.75;;;2.63;;
2546;SDS011;1283;47.982;7.834;2024-01-27T12:49:18;6.57;;;2.50;;
2546;SDS011;1283;47.982;7.834;2024-01-27T12:51:46;4.93;;;2.13;;
2546;SDS011;1283;47.982;7.834;2024-01-27T12:54:13;8.15;;;2.25;;
2546;SDS011;1283;47.982;7.834;2024-01-27T12:56:41;4.80;;;2.22;;
2546;SDS011;1283;47.982;7.834;2024-01-27T12:59:07;11.95;;;2.40;;
2546;SDS011;1283;47.982;7.834;2024-01-27T13:01:34;7.45;;;2.47;;
2546;SDS011;1283;47.982;7.834;2024-01-27T13:04:00;6.80;;;2.60;;
2546;SDS011;1283;47.982;7.834;2024-01-27T13:06:26;8.90;;;3.17;;
2546;SDS011;1283;47.982;7.834;2024-01-27T13:08:54;5.25;;;2.40;;
2546;SDS011;1283;47.982;7.834;2024-01-27T13:11:21;12.02;;;3.80;;
2546;SDS011;1283;47.982;7.834;2024-01-27T13:13:46;8.77;;;3.25;;
2546;SDS011;1283;47.982;7.834;2024-01-27T13:16:13;7.97;;;3.08;;
2546;SDS011;1283;47.982;7.834;2024-01-27T13:18:39;9.15;;;3.17;;
2546;SDS011;1283;47.982;7.834;2024-01-27T13:21:06;10.02;;;3.25;;
2546;SDS011;1283;47.982;7.834;2024-01-27T13:23:33;11.35;;;3.42;;
2546;SDS011;1283;47.982;7.834;2024-01-27T13:26:01;7.38;;;2.80;;
2546;SDS011;1283;47.982;7.834;2024-01-27T13:28:27;7.30;;;2.60;;
2546;SDS011;1283;47.982;7.834;2024-01-27T13:30:54;7.28;;;2.72;;
2546;SDS011;1283;47.982;7.834;2024-01-27T13:33:20;8.10;;;3.00;;
2546;SDS011;1283;47.982;7.834;2024-01-27T13:35:47;10.38;;;2.63;;
2546;SDS011;1283;47.982;7.834;2024-01-27T13:38:13;7.35;;;2.30;;
2546;SDS011;1283;47.982;7.834;2024-01-27T13:40:40;7.65;;;2.75;;
2546;SDS011;1283;47.982;7.834;2024-01-27T13:43:08;5.10;;;2.40;;
2546;SDS011;1283;47.982;7.834;2024-01-27T13:45:35;6.65;;;3.17;;
2546;SDS011;1283;47.982;7.834;2024-01-27T13:48:01;5.80;;;2.67;;
2546;SDS011;1283;47.982;7.834;2024-01-27T13:50:28;5.95;;;2.83;;
2546;SDS011;1283;47.982;7.834;2024-01-27T13:52:56;6.18;;;2.97;;
2546;SDS011;1283;47.982;7.834;2024-01-27T13:55:23;6.95;;;3.30;;
2546;SDS011;1283;47.982;7.834;2024-01-27T13:57:49;8.30;;;3.17;;
2546;SDS011;1283;47.982;7.834;2024-01-27T14:00:17;7.50;;;3.05;;
2546;SDS011;1283;47.982;7.834;2024-01-27T14:02:44;7.65;;;3.75;;
2546;SDS011;1283;47.982;7.834;2024-01-27T14:05:10;8.60;;;3.40;;
2546;SDS011;1283;47.982;7.834;2024-01-27T14:07:37;12.18;;;3.60;;
2546;SDS011;1283;47.982;7.834;2024-01-27T14:10:04;12.75;;;3.60;;
2546;SDS011;1283;47.982;7.834;2024-01-27T14:12:30;9.65;;;3.65;;
2546;SDS011;1283;47.982;7.834;2024-01-27T14:15:02;12.93;;;4.95;;
2546;SDS011;1283;47.982;7.834;2024-01-27T14:17:33;6.22;;;3.38;;
2546;SDS011;1283;47.982;7.834;2024-01-27T14:20:00;6.97;;;3.47;;
2546;SDS011;1283;47.982;7.834;2024-01-27T14:22:27;11.13;;;4.15;;
2546;SDS011;1283;47.982;7.834;2024-01-27T14:24:53;7.80;;;3.38;;
2546;SDS011;1283;47.982;7.834;2024-01-27T14:27:20;8.27;;;3.42;;
2546;SDS011;1283;47.982;7.834;2024-01-27T14:29:50;6.03;;;2.83;;
2546;SDS011;1283;47.982;7.834;2024-01-27T14:32:17;5.03;;;3.33;;
2546;SDS011;1283;47.982;7.834;2024-01-27T14:34:45;9.75;;;3.88;;
2546;SDS011;1283;47.982;7.834;2024-01-27T14:37:11;18.13;;;3.92;;
2546;SDS011;1283;47.982;7.834;2024-01-27T14:39:38;16.85;;;4.05;;
2546;SDS011;1283;47.982;7.834;2024-01-27T14:42:07;11.55;;;3.58;;
2546;SDS011;1283;47.982;7.834;2024-01-27T14:44:33;9.13;;;3.70;;
2546;SDS011;1283;47.982;7.834;2024-01-27T14:47:00;12.63;;;4.05;;
2546;SDS011;1283;47.982;7.834;2024-01-27T14:49:27;8.82;;;3.67;;
2546;SDS011;1283;47.982;7.834;2024-01-27T14:51:54;8.63;;;3.60;;
2546;SDS011;1283;47.982;7.834;2024-01-27T14:54:21;11.65;;;3.63;;
2546;SDS011;1283;47.982;7.834;2024-01-27T14:56:47;10.55;;;3.45;;
2546;SDS011;1283;47.982;7.834;2024-01-27T14:59:14;7.47;;;3.30;;
2546;SDS011;1283;47.982;7.834;2024-01-27T15:01:41;5.88;;;2.92;;
2546;SDS011;1283;47.982;7.834;2024-01-27T15:04:07;9.73;;;3.83;;
2546;SDS011;1283;47.982;7.834;2024-01-27T15:06:33;8.93;;;3.58;;
2546;SDS011;1283;47.982;7.834;2024-01-27T15:09:01;11.90;;;3.45;;
2546;SDS011;1283;47.982;7.834;2024-01-27T15:11:28;7.22;;;3.40;;
2546;SDS011;1283;47.982;7.834;2024-01-27T15:13:55;16.23;;;3.78;;
2546;SDS011;1283;47.982;7.834;2024-01-27T15:16:22;10.60;;;3.60;;